sensor_id;sensor_type;location;lat;lon;timestamp;pressure;altitude;pressure_sealevel;temperature;humidity
5296;BME280;2670;42.720;23.336;2023-02-19T00:00:09;-22589.25;;;5.07;83.97
5296;BME280;2670;42.720;23.336;2023-02-19T00:02:38;-22591.66;;;5.15;82.98
5296;BME280;2670;42.720;23.336;2023-02-19T00:05:06;-22588.81;;;5.05;84.57
5296;BME280;2670;42.720;23.336;2023-02-19T00:07:33;-22591.19;;;5.13;84.40
5296;BME280;2670;42.720;23.336;2023-02-19T00:10:00;-22588.81;;;5.05;84.68
5296;BME280;2670;42.720;23.336;2023-02-19T00:12:26;-22586.72;;;4.98;84.05
5296;BME280;2670;42.720;23.336;2023-02-19T00:14:53;-22584.78;;;4.91;85.07
5296;BME280;2670;42.720;23.336;2023-02-19T00:17:21;-22583.59;;;4.87;85.68
5296;BME280;2670;42.720;23.336;2023-02-19T00:19:48;-22582.41;;;4.83;85.53
5296;BME280;2670;42.720;23.336;2023-02-19T00:22:16;-22587.47;;;5.00;84.27
5296;BME280;2670;42.720;23.336;2023-02-19T00:24:42;-22579.88;;;4.74;86.11
5296;BME280;2670;42.720;23.336;2023-02-19T00:27:09;-22580.63;;;4.77;86.20
5296;BME280;2670;42.720;23.336;2023-02-19T00:29:36;-22580.31;;;4.76;86.11
5296;BME280;2670;42.720;23.336;2023-02-19T00:32:03;-22579.88;;;4.74;87.10
5296;BME280;2670;42.720;23.336;2023-02-19T00:34:30;-22577.94;;;4.68;87.12
5296;BME280;2670;42.720;23.336;2023-02-19T00:36:56;-22577.03;;;4.65;87.86
5296;BME280;2670;42.720;23.336;2023-02-19T00:39:24;-22579.56;;;4.73;86.12
5296;BME280;2670;42.720;23.336;2023-02-19T00:41:51;-22574.66;;;4.57;87.16
5296;BME280;2670;42.720;23.336;2023-02-19T00:44:18;-22574.34;;;4.56;87.72
5296;BME280;2670;42.720;23.336;2023-02-19T00:46:46;-22574.66;;;4.57;88.05
5296;BME280;2670;42.720;23.336;2023-02-19T00:49:16;-22577.34;;;4.66;87.40
5296;BME280;2670;42.720;23.336;2023-02-19T00:51:43;-22575.09;;;4.58;87.67
5296;BME280;2670;42.720;23.336;2023-02-19T00:54:10;-22575.41;;;4.59;87.57
5296;BME280;2670;42.720;23.336;2023-02-19T00:56:38;-22576.44;;;4.63;87.67
5296;BME280;2670;42.720;23.336;2023-02-19T00:59:05;-22575.09;;;4.58;87.96
5296;BME280;2670;42.720;23.336;2023-02-19T01:01:32;-22573.59;;;4.53;88.45
5296;BME280;2670;42.720;23.336;2023-02-19T01:03:59;-22572.13;;;4.48;88.91
5296;BME280;2670;42.720;23.336;2023-02-19T01:06:25;-22577.34;;;4.66;87.79
5296;BME280;2670;42.720;23.336;2023-02-19T01:08:54;-22573.47;;;4.53;88.42
5296;BME280;2670;42.720;23.336;2023-02-19T01:11:21;-22570.94;;;4.44;88.85
5296;BME280;2670;42.720;23.336;2023-02-19T01:13:49;-22574.94;;;4.58;88.32
5296;BME280;2670;42.720;23.336;2023-02-19T01:16:17;-22567.78;;;4.33;89.63
5296;BME280;2670;42.720;23.336;2023-02-19T01:18:45;-22572.72;;;4.50;89.58
5296;BME280;2670;42.720;23.336;2023-02-19T01:21:13;-22570.03;;;4.41;89.79
5296;BME280;2670;42.720;23.336;2023-02-19T01:23:40;-22567.50;;;4.32;90.36
5296;BME280;2670;42.720;23.336;2023-02-19T01:26:11;-22565.84;;;4.27;91.12
5296;BME280;2670;42.720;23.336;2023-02-19T01:28:38;-22567.03;;;4.31;90.72
5296;BME280;2670;42.720;23.336;2023-02-19T01:31:09;-22566.59;;;4.29;91.04
5296;BME280;2670;42.720;23.336;2023-02-19T01:33:37;-22567.63;;;4.33;91.04
5296;BME280;2670;42.720;23.336;2023-02-19T01:36:05;-22569.28;;;4.38;90.94
5296;BME280;2670;42.720;23.336;2023-02-19T01:38:32;-22567.19;;;4.31;90.84
5296;BME280;2670;42.720;23.336;2023-02-19T01:41:04;-22563.75;;;4.19;91.46
5296;BME280;2670;42.720;23.336;2023-02-19T01:43:32;-22561.53;;;4.12;91.51
5296;BME280;2670;42.720;23.336;2023-02-19T01:45:59;-22565.84;;;4.27;92.10
5296;BME280;2670;42.720;23.336;2023-02-19T01:48:30;-22568.25;;;4.35;92.60
5296;BME280;2670;42.720;23.336;2023-02-19T01:51:03;-22572.72;;;4.50;92.76
5296;BME280;2670;42.720;23.336;2023-02-19T01:53:34;-22575.69;;;4.60;92.47
5296;BME280;2670;42.720;23.336;2023-02-19T01:56:04;-22576.00;;;4.61;92.35
5296;BME280;2670;42.720;23.336;2023-02-19T01:58:33;-22578.97;;;4.71;92.11
5296;BME280;2670;42.720;23.336;2023-02-19T02:01:03;-22582.25;;;4.83;92.13
5296;BME280;2670;42.720;23.336;2023-02-19T02:03:33;-22584.19;;;4.89;91.85
5296;BME280;2670;42.720;23.336;2023-02-19T02:06:02;-22582.25;;;4.83;91.57
5296;BME280;2670;42.720;23.336;2023-02-19T02:08:32;-22582.41;;;4.83;91.10
5296;BME280;2670;42.720;23.336;2023-02-19T02:11:17;-22581.66;;;4.81;91.30
5296;BME280;2670;42.720;23.336;2023-02-19T02:13:45;-22581.50;;;4.80;92.01
5296;BME280;2670;42.720;23.336;2023-02-19T02:16:23;-22581.22;;;4.79;92.28
5296;BME280;2670;42.720;23.336;2023-02-19T02:18:58;-22583.16;;;4.86;91.19
5296;BME280;2670;42.720;23.336;2023-02-19T02:25:01;-22578.38;;;4.69;91.83
5296;BME280;2670;42.720;23.336;2023-02-19T02:27:47;-22578.53;;;4.70;91.83
5296;BME280;2670;42.720;23.336;2023-02-19T02:30:26;-22576.13;;;4.62;92.36
5296;BME280;2670;42.720;23.336;2023-02-19T02:32:57;-22575.25;;;4.59;92.68
5296;BME280;2670;42.720;23.336;2023-02-19T02:35:29;-22571.06;;;4.44;92.77
5296;BME280;2670;42.720;23.336;2023-02-19T02:38:01;-22569.28;;;4.38;92.23
5296;BME280;2670;42.720;23.336;2023-02-19T02:40:28;-22570.78;;;4.43;91.67
5296;BME280;2670;42.720;23.336;2023-02-19T02:42:56;-22561.97;;;4.13;92.46
5296;BME280;2670;42.720;23.336;2023-02-19T02:45:29;-22563.31;;;4.18;91.54
5296;BME280;2670;42.720;23.336;2023-02-19T02:48:16;-22554.97;;;3.89;92.27
5296;BME280;2670;42.720;23.336;2023-02-19T02:50:46;-22559.13;;;4.04;92.80
5296;BME280;2670;42.720;23.336;2023-02-19T02:53:18;-22554.50;;;3.88;93.90
5296;BME280;2670;42.720;23.336;2023-02-19T02:56:04;-22554.38;;;3.87;95.33
5296;BME280;2670;42.720;23.336;2023-02-19T02:58:31;-22555.56;;;3.91;94.84
5296;BME280;2670;42.720;23.336;2023-02-19T03:01:04;-22559.28;;;4.04;94.76
5296;BME280;2670;42.720;23.336;2023-02-19T03:03:53;-22561.69;;;4.12;93.19
5296;BME280;2670;42.720;23.336;2023-02-19T03:06:23;-22566.00;;;4.27;92.66
5296;BME280;2670;42.720;23.336;2023-02-19T03:08:55;-22566.44;;;4.29;92.03
5296;BME280;2670;42.720;23.336;2023-02-19T03:11:24;-22563.63;;;4.19;92.32
5296;BME280;2670;42.720;23.336;2023-02-19T03:14:12;-22564.22;;;4.21;92.01
5296;BME280;2670;42.720;23.336;2023-02-19T03:17:05;-22561.38;;;4.11;92.28
5296;BME280;2670;42.720;23.336;2023-02-19T03:19:56;-22557.34;;;3.97;93.21
5296;BME280;2670;42.720;23.336;2023-02-19T03:22:26;-22556.75;;;3.95;93.28
5296;BME280;2670;42.720;23.336;2023-02-19T03:24:58;-22555.56;;;3.91;93.84
5296;BME280;2670;42.720;23.336;2023-02-19T03:27:45;-22556.16;;;3.93;94.67
5296;BME280;2670;42.720;23.336;2023-02-19T03:30:17;-22560.63;;;4.09;93.93
5296;BME280;2670;42.720;23.336;2023-02-19T03:32:50;-22555.41;;;3.91;94.84
5296;BME280;2670;42.720;23.336;2023-02-19T03:35:21;-22556.59;;;3.95;94.93
5296;BME280;2670;42.720;23.336;2023-02-19T03:37:53;-22554.06;;;3.86;95.25
5296;BME280;2670;42.720;23.336;2023-02-19T03:40:26;-22556.91;;;3.96;95.16
5296;BME280;2670;42.720;23.336;2023-02-19T03:42:59;-22552.13;;;3.80;95.91
5296;BME280;2670;42.720;23.336;2023-02-19T03:45:37;-22554.50;;;3.88;95.50
5296;BME280;2670;42.720;23.336;2023-02-19T03:48:19;-22551.38;;;3.77;95.36
5296;BME280;2670;42.720;23.336;2023-02-19T03:50:51;-22549.88;;;3.72;95.61
5296;BME280;2670;42.720;23.336;2023-02-19T03:53:27;-22548.41;;;3.67;96.03
5296;BME280;2670;42.720;23.336;2023-02-19T03:56:04;-22548.25;;;3.66;96.59
5296;BME280;2670;42.720;23.336;2023-02-19T03:58:39;-22547.50;;;3.64;96.93
5296;BME280;2670;42.720;23.336;2023-02-19T04:01:12;-22549.28;;;3.70;97.09
5296;BME280;2670;42.720;23.336;2023-02-19T04:03:45;-22548.25;;;3.66;96.83
5296;BME280;2670;42.720;23.336;2023-02-19T04:06:14;-22545.41;;;3.57;97.94
5296;BME280;2670;42.720;23.336;2023-02-19T04:08:46;-22549.59;;;3.71;97.05
5296;BME280;2670;42.720;23.336;2023-02-19T04:11:15;-22545.56;;;3.57;96.96
5296;BME280;2670;42.720;23.336;2023-02-19T04:13:44;-22543.31;;;3.49;98.21
5296;BME280;2670;42.720;23.336;2023-02-19T04:16:17;-22543.75;;;3.51;97.96
5296;BME280;2670;42.720;23.336;2023-02-19T04:18:49;-22543.31;;;3.49;97.84
5296;BME280;2670;42.720;23.336;2023-02-19T04:21:19;-22543.63;;;3.50;97.40
5296;BME280;2670;42.720;23.336;2023-02-19T04:23:48;-22541.22;;;3.42;97.72
5296;BME280;2670;42.720;23.336;2023-02-19T04:26:16;-22536.59;;;3.27;98.68
5296;BME280;2670;42.720;23.336;2023-02-19T04:28:43;-22536.75;;;3.27;99.96
5296;BME280;2670;42.720;23.336;2023-02-19T04:31:10;-22536.47;;;3.26;99.29
5296;BME280;2670;42.720;23.336;2023-02-19T04:33:37;-22537.81;;;3.31;100.00
5296;BME280;2670;42.720;23.336;2023-02-19T04:36:08;-22538.84;;;3.34;99.25
5296;BME280;2670;42.720;23.336;2023-02-19T04:38:35;-22537.66;;;3.30;99.01
5296;BME280;2670;42.720;23.336;2023-02-19T04:41:01;-22533.75;;;3.17;99.89
5296;BME280;2670;42.720;23.336;2023-02-19T04:43:28;-22533.63;;;3.16;100.00
5296;BME280;2670;42.720;23.336;2023-02-19T04:45:58;-22532.28;;;3.12;100.00
5296;BME280;2670;42.720;23.336;2023-02-19T04:48:25;-22533.31;;;3.15;100.00
5296;BME280;2670;42.720;23.336;2023-02-19T04:50:52;-22532.56;;;3.13;100.00
5296;BME280;2670;42.720;23.336;2023-02-19T04:53:20;-22537.19;;;3.29;99.02
5296;BME280;2670;42.720;23.336;2023-02-19T04:55:46;-22533.16;;;3.15;99.84
5296;BME280;2670;42.720;23.336;2023-02-19T04:58:13;-22533.63;;;3.16;99.82
5296;BME280;2670;42.720;23.336;2023-02-19T05:00:40;-22531.06;;;3.08;100.00
5296;BME280;2670;42.720;23.336;2023-02-19T05:03:06;-22529.59;;;3.03;100.00
5296;BME280;2670;42.720;23.336;2023-02-19T05:05:33;-22531.69;;;3.10;100.00
5296;BME280;2670;42.720;23.336;2023-02-19T05:08:00;-22531.38;;;3.09;100.00
5296;BME280;2670;42.720;23.336;2023-02-19T05:10:28;-22531.22;;;3.08;100.00
5296;BME280;2670;42.720;23.336;2023-02-19T05:12:55;-22528.84;;;3.00;100.00
5296;BME280;2670;42.720;23.336;2023-02-19T05:15:22;-22528.25;;;2.98;100.00
5296;BME280;2670;42.720;23.336;2023-02-19T05:17:49;-22525.41;;;2.88;100.00
5296;BME280;2670;42.720;23.336;2023-02-19T05:20:15;-22524.97;;;2.87;100.00
5296;BME280;2670;42.720;23.336;2023-02-19T05:22:42;-22523.03;;;2.80;100.00
5296;BME280;2670;42.720;23.336;2023-02-19T05:25:09;-22524.38;;;2.85;100.00
5296;BME280;2670;42.720;23.336;2023-02-19T05:27:37;-22524.97;;;2.87;100.00
5296;BME280;2670;42.720;23.336;2023-02-19T05:30:05;-22523.63;;;2.82;100.00
5296;BME280;2670;42.720;23.336;2023-02-19T05:32:34;-22524.50;;;2.85;100.00
5296;BME280;2670;42.720;23.336;2023-02-19T05:35:01;-22527.19;;;2.94;100.00
5296;BME280;2670;42.720;23.336;2023-02-19T05:37:28;-22527.50;;;2.95;100.00
5296;BME280;2670;42.720;23.336;2023-02-19T05:39:54;-22527.06;;;2.94;100.00
5296;BME280;2670;42.720;23.336;2023-02-19T05:42:21;-22525.09;;;2.87;100.00
5296;BME280;2670;42.720;23.336;2023-02-19T05:44:49;-22529.28;;;3.02;100.00
5296;BME280;2670;42.720;23.336;2023-02-19T05:47:16;-22531.06;;;3.08;100.00
5296;BME280;2670;42.720;23.336;2023-02-19T05:49:42;-22533.16;;;3.15;100.00
5296;BME280;2670;42.720;23.336;2023-02-19T05:52:09;-22539.16;;;3.35;100.00
5296;BME280;2670;42.720;23.336;2023-02-19T05:54:36;-22541.97;;;3.45;100.00
5296;BME280;2670;42.720;23.336;2023-02-19T05:57:02;-22545.84;;;3.58;100.00
5296;BME280;2670;42.720;23.336;2023-02-19T05:59:29;-22542.88;;;3.48;100.00
5296;BME280;2670;42.720;23.336;2023-02-19T06:01:57;-22547.66;;;3.64;100.00
5296;BME280;2670;42.720;23.336;2023-02-19T06:04:24;-22548.69;;;3.68;100.00
5296;BME280;2670;42.720;23.336;2023-02-19T06:06:50;-22548.53;;;3.67;100.00
5296;BME280;2670;42.720;23.336;2023-02-19T06:09:17;-22549.16;;;3.69;100.00
5296;BME280;2670;42.720;23.336;2023-02-19T06:11:45;-22549.16;;;3.69;100.00
5296;BME280;2670;42.720;23.336;2023-02-19T06:14:12;-22553.16;;;3.83;100.00
5296;BME280;2670;42.720;23.336;2023-02-19T06:16:39;-22561.97;;;4.13;100.00
5296;BME280;2670;42.720;23.336;2023-02-19T06:19:08;-22566.75;;;4.30;100.00
5296;BME280;2670;42.720;23.336;2023-02-19T06:21:35;-22577.34;;;4.66;100.00
5296;BME280;2670;42.720;23.336;2023-02-19T06:24:05;-22579.72;;;4.74;98.74
5296;BME280;2670;42.720;23.336;2023-02-19T06:26:32;-22588.06;;;5.03;96.33
5296;BME280;2670;42.720;23.336;2023-02-19T06:28:59;-22591.94;;;5.16;94.64
5296;BME280;2670;42.720;23.336;2023-02-19T06:31:25;-22595.22;;;5.27;93.04
5296;BME280;2670;42.720;23.336;2023-02-19T06:33:52;-22598.34;;;5.38;91.68
5296;BME280;2670;42.720;23.336;2023-02-19T06:36:22;-22598.03;;;5.37;91.66
5296;BME280;2670;42.720;23.336;2023-02-19T06:38:49;-22598.03;;;5.37;91.33
5296;BME280;2670;42.720;23.336;2023-02-19T06:41:17;-22603.13;;;5.54;90.03
5296;BME280;2670;42.720;23.336;2023-02-19T06:43:44;-22602.66;;;5.53;90.24
5296;BME280;2670;42.720;23.336;2023-02-19T06:46:11;-22605.78;;;5.63;88.80
5296;BME280;2670;42.720;23.336;2023-02-19T06:48:39;-22608.91;;;5.74;87.56
5296;BME280;2670;42.720;23.336;2023-02-19T06:51:06;-22611.75;;;5.84;87.21
5296;BME280;2670;42.720;23.336;2023-02-19T06:53:36;-22616.06;;;5.98;86.49
5296;BME280;2670;42.720;23.336;2023-02-19T06:56:05;-22622.03;;;6.19;84.69
5296;BME280;2670;42.720;23.336;2023-02-19T06:58:32;-22625.59;;;6.31;84.65
5296;BME280;2670;42.720;23.336;2023-02-19T07:00:59;-22629.03;;;6.43;83.80
5296;BME280;2670;42.720;23.336;2023-02-19T07:03:26;-22636.91;;;6.70;82.99
5296;BME280;2670;42.720;23.336;2023-02-19T07:05:53;-22636.63;;;6.69;81.68
5296;BME280;2670;42.720;23.336;2023-02-19T07:08:20;-22640.03;;;6.81;81.90
5296;BME280;2670;42.720;23.336;2023-02-19T07:10:54;-22644.66;;;6.96;80.34
5296;BME280;2670;42.720;23.336;2023-02-19T07:13:21;-22645.84;;;7.01;80.36
5296;BME280;2670;42.720;23.336;2023-02-19T07:15:48;-22647.03;;;7.05;81.16
5296;BME280;2670;42.720;23.336;2023-02-19T07:18:15;-22652.81;;;7.24;79.64
5296;BME280;2670;42.720;23.336;2023-02-19T07:20:41;-22660.56;;;7.51;77.92
5296;BME280;2670;42.720;23.336;2023-02-19T07:23:08;-22666.50;;;7.71;77.34
5296;BME280;2670;42.720;23.336;2023-02-19T07:25:36;-22671.84;;;7.90;75.77
5296;BME280;2670;42.720;23.336;2023-02-19T07:28:05;-22671.84;;;7.90;76.13
5296;BME280;2670;42.720;23.336;2023-02-19T07:30:31;-22676.00;;;8.04;75.38
5296;BME280;2670;42.720;23.336;2023-02-19T07:32:58;-22682.25;;;8.26;73.79
5296;BME280;2670;42.720;23.336;2023-02-19T07:35:25;-22693.97;;;8.66;71.49
5296;BME280;2670;42.720;23.336;2023-02-19T07:37:52;-22697.25;;;8.77;70.46
5296;BME280;2670;42.720;23.336;2023-02-19T07:40:18;-22701.09;;;8.90;69.48
5296;BME280;2670;42.720;23.336;2023-02-19T07:42:45;-22709.84;;;9.20;67.48
5296;BME280;2670;42.720;23.336;2023-02-19T07:45:13;-22715.03;;;9.38;66.84
5296;BME280;2670;42.720;23.336;2023-02-19T07:47:40;-22721.13;;;9.59;65.14
5296;BME280;2670;42.720;23.336;2023-02-19T07:50:07;-22722.16;;;9.63;64.97
5296;BME280;2670;42.720;23.336;2023-02-19T07:52:34;-22724.09;;;9.69;65.00
5296;BME280;2670;42.720;23.336;2023-02-19T07:55:01;-22728.41;;;9.84;64.36
5296;BME280;2670;42.720;23.336;2023-02-19T07:57:28;-22729.72;;;9.89;64.08
5296;BME280;2670;42.720;23.336;2023-02-19T07:59:55;-22737.44;;;10.15;62.20
5296;BME280;2670;42.720;23.336;2023-02-19T08:02:24;-22740.56;;;10.26;61.96
5296;BME280;2670;42.720;23.336;2023-02-19T08:05:08;-22737.28;;;10.15;62.18
5296;BME280;2670;42.720;23.336;2023-02-19T08:07:36;-22740.25;;;10.25;61.23
5296;BME280;2670;42.720;23.336;2023-02-19T08:10:03;-22747.06;;;10.48;59.39
5296;BME280;2670;42.720;23.336;2023-02-19T08:12:54;-22747.38;;;10.50;60.34
5296;BME280;2670;42.720;23.336;2023-02-19T08:15:39;-22751.38;;;10.63;58.44
5296;BME280;2670;42.720;23.336;2023-02-19T08:18:08;-22751.06;;;10.62;58.49
5296;BME280;2670;42.720;23.336;2023-02-19T08:20:35;-22753.44;;;10.70;58.38
5296;BME280;2670;42.720;23.336;2023-02-19T08:23:02;-22749.88;;;10.58;58.89
5296;BME280;2670;42.720;23.336;2023-02-19T08:25:28;-22755.22;;;10.77;58.50
5296;BME280;2670;42.720;23.336;2023-02-19T08:27:55;-22757.44;;;10.84;58.98
5296;BME280;2670;42.720;23.336;2023-02-19T08:30:24;-22758.63;;;10.88;57.70
5296;BME280;2670;42.720;23.336;2023-02-19T08:32:51;-22758.91;;;10.89;57.93
5296;BME280;2670;42.720;23.336;2023-02-19T08:35:20;-22762.75;;;11.03;57.58
5296;BME280;2670;42.720;23.336;2023-02-19T08:37:47;-22762.63;;;11.02;57.92
5296;BME280;2670;42.720;23.336;2023-02-19T08:40:13;-22767.81;;;11.20;57.55
5296;BME280;2670;42.720;23.336;2023-02-19T08:42:40;-22772.69;;;11.37;56.74
5296;BME280;2670;42.720;23.336;2023-02-19T08:45:07;-22775.78;;;11.47;56.41
5296;BME280;2670;42.720;23.336;2023-02-19T08:47:34;-22775.50;;;11.46;57.03
5296;BME280;2670;42.720;23.336;2023-02-19T08:50:03;-22778.44;;;11.57;56.36
5296;BME280;2670;42.720;23.336;2023-02-19T08:52:31;-22782.16;;;11.69;55.65
5296;BME280;2670;42.720;23.336;2023-02-19T08:54:58;-22784.38;;;11.77;55.65
5296;BME280;2670;42.720;23.336;2023-02-19T08:57:25;-22784.06;;;11.76;55.39
5296;BME280;2670;42.720;23.336;2023-02-19T08:59:53;-22787.63;;;11.88;55.30
5296;BME280;2670;42.720;23.336;2023-02-19T09:02:20;-22785.56;;;11.81;55.81
5296;BME280;2670;42.720;23.336;2023-02-19T09:04:47;-22786.44;;;11.84;55.51
5296;BME280;2670;42.720;23.336;2023-02-19T09:07:14;-22799.75;;;12.30;54.28
5296;BME280;2670;42.720;23.336;2023-02-19T09:09:42;-22803.75;;;12.44;53.75
5296;BME280;2670;42.720;23.336;2023-02-19T09:12:10;-22803.16;;;12.42;54.63
5296;BME280;2670;42.720;23.336;2023-02-19T09:14:38;-22805.97;;;12.52;54.02
5296;BME280;2670;42.720;23.336;2023-02-19T09:17:06;-22808.91;;;12.62;54.12
5296;BME280;2670;42.720;23.336;2023-02-19T09:19:33;-22805.81;;;12.51;54.45
5296;BME280;2670;42.720;23.336;2023-02-19T09:22:00;-22819.41;;;12.98;52.91
5296;BME280;2670;42.720;23.336;2023-02-19T09:24:27;-22818.66;;;12.95;52.65
5296;BME280;2670;42.720;23.336;2023-02-19T09:26:55;-22814.81;;;12.82;53.93
5296;BME280;2670;42.720;23.336;2023-02-19T09:29:24;-22814.25;;;12.80;53.93
5296;BME280;2670;42.720;23.336;2023-02-19T09:31:54;-22815.56;;;12.85;54.15
5296;BME280;2670;42.720;23.336;2023-02-19T09:34:21;-22820.88;;;13.03;52.96
5296;BME280;2670;42.720;23.336;2023-02-19T09:36:48;-22820.16;;;13.01;53.06
5296;BME280;2670;42.720;23.336;2023-02-19T09:39:15;-22822.06;;;13.07;53.20
5296;BME280;2670;42.720;23.336;2023-02-19T09:41:44;-22824.56;;;13.16;52.59
5296;BME280;2670;42.720;23.336;2023-02-19T09:44:16;-22828.41;;;13.29;52.65
5296;BME280;2670;42.720;23.336;2023-02-19T09:46:48;-22832.84;;;13.44;52.14
5296;BME280;2670;42.720;23.336;2023-02-19T09:49:17;-22838.16;;;13.63;50.90
5296;BME280;2670;42.720;23.336;2023-02-19T09:51:48;-22838.31;;;13.63;50.83
5296;BME280;2670;42.720;23.336;2023-02-19T09:54:20;-22839.66;;;13.68;50.92
5296;BME280;2670;42.720;23.336;2023-02-19T09:56:48;-22838.16;;;13.63;51.19
5296;BME280;2670;42.720;23.336;2023-02-19T09:59:19;-22841.13;;;13.73;50.85
5296;BME280;2670;42.720;23.336;2023-02-19T10:01:47;-22847.91;;;13.97;50.21
5296;BME280;2670;42.720;23.336;2023-02-19T10:04:15;-22851.75;;;14.10;49.63
5296;BME280;2670;42.720;23.336;2023-02-19T10:06:42;-22850.84;;;14.07;49.65
5296;BME280;2670;42.720;23.336;2023-02-19T10:09:17;-22851.28;;;14.08;49.50
5296;BME280;2670;42.720;23.336;2023-02-19T10:11:46;-22849.09;;;14.01;49.39
5296;BME280;2670;42.720;23.336;2023-02-19T10:14:18;-22849.53;;;14.02;49.79
5296;BME280;2670;42.720;23.336;2023-02-19T10:16:48;-22849.97;;;14.04;48.59
5296;BME280;2670;42.720;23.336;2023-02-19T10:19:15;-22852.63;;;14.13;48.79
5296;BME280;2670;42.720;23.336;2023-02-19T10:21:42;-22851.16;;;14.08;49.05
5296;BME280;2670;42.720;23.336;2023-02-19T10:24:15;-22859.56;;;14.37;48.64
5296;BME280;2670;42.720;23.336;2023-02-19T10:26:45;-22861.91;;;14.45;47.59
5296;BME280;2670;42.720;23.336;2023-02-19T10:29:12;-22864.28;;;14.53;47.14
5296;BME280;2670;42.720;23.336;2023-02-19T10:31:40;-22865.16;;;14.56;47.32
5296;BME280;2670;42.720;23.336;2023-02-19T10:34:16;-22864.44;;;14.54;47.21
5296;BME280;2670;42.720;23.336;2023-02-19T10:36:47;-22861.63;;;14.44;47.13
5296;BME280;2670;42.720;23.336;2023-02-19T10:39:35;-22863.41;;;14.50;46.83
5296;BME280;2670;42.720;23.336;2023-02-19T10:42:04;-22866.63;;;14.61;47.10
5296;BME280;2670;42.720;23.336;2023-02-19T10:44:34;-22866.94;;;14.62;46.63
5296;BME280;2670;42.720;23.336;2023-02-19T10:47:05;-22869.28;;;14.70;46.42
5296;BME280;2670;42.720;23.336;2023-02-19T10:49:35;-22873.72;;;14.86;45.46
5296;BME280;2670;42.720;23.336;2023-02-19T10:52:12;-22873.28;;;14.84;45.57
5296;BME280;2670;42.720;23.336;2023-02-19T10:54:42;-22875.94;;;14.93;45.44
5296;BME280;2670;42.720;23.336;2023-02-19T10:57:24;-22881.22;;;15.12;44.92
5296;BME280;2670;42.720;23.336;2023-02-19T10:59:55;-22888.00;;;15.35;44.10
5296;BME280;2670;42.720;23.336;2023-02-19T11:02:25;-22884.31;;;15.23;44.36
5296;BME280;2670;42.720;23.336;2023-02-19T11:05:10;-22881.22;;;15.12;44.18
5296;BME280;2670;42.720;23.336;2023-02-19T11:07:43;-22881.53;;;15.13;44.37
5296;BME280;2670;42.720;23.336;2023-02-19T11:10:20;-22879.00;;;15.04;44.21
5296;BME280;2670;42.720;23.336;2023-02-19T11:12:50;-22883.44;;;15.19;44.13
5296;BME280;2670;42.720;23.336;2023-02-19T11:15:21;-22882.84;;;15.17;43.55
5296;BME280;2670;42.720;23.336;2023-02-19T11:17:59;-22881.81;;;15.14;44.12
5296;BME280;2670;42.720;23.336;2023-02-19T11:20:27;-22880.78;;;15.10;44.57
5296;BME280;2670;42.720;23.336;2023-02-19T11:22:58;-22884.19;;;15.22;43.96
5296;BME280;2670;42.720;23.336;2023-02-19T11:25:27;-22889.47;;;15.40;43.87
5296;BME280;2670;42.720;23.336;2023-02-19T11:28:00;-22891.84;;;15.49;43.79
5296;BME280;2670;42.720;23.336;2023-02-19T11:30:39;-22893.75;;;15.55;43.28
5296;BME280;2670;42.720;23.336;2023-02-19T11:33:20;-22896.41;;;15.64;43.05
5296;BME280;2670;42.720;23.336;2023-02-19T11:35:48;-22895.81;;;15.62;43.44
5296;BME280;2670;42.720;23.336;2023-02-19T11:38:17;-22897.72;;;15.69;43.07
5296;BME280;2670;42.720;23.336;2023-02-19T11:40:50;-22896.41;;;15.64;42.94
5296;BME280;2670;42.720;23.336;2023-02-19T11:46:20;-22903.91;;;15.90;42.02
5296;BME280;2670;42.720;23.336;2023-02-19T11:48:59;-22903.16;;;15.88;41.53
5296;BME280;2670;42.720;23.336;2023-02-19T11:51:49;-22904.06;;;15.91;41.98
5296;BME280;2670;42.720;23.336;2023-02-19T11:54:33;-22903.63;;;15.89;41.67
5296;BME280;2670;42.720;23.336;2023-02-19T11:57:08;-22906.25;;;15.99;41.69
5296;BME280;2670;42.720;23.336;2023-02-19T11:59:46;-22910.38;;;16.13;41.40
5296;BME280;2670;42.720;23.336;2023-02-19T12:05:28;-22916.56;;;16.34;40.70
5296;BME280;2670;42.720;23.336;2023-02-19T12:08:17;-22914.50;;;16.27;40.76
5296;BME280;2670;42.720;23.336;2023-02-19T12:11:00;-22915.53;;;16.31;40.85
5296;BME280;2670;42.720;23.336;2023-02-19T12:13:43;-22920.81;;;16.49;40.13
5296;BME280;2670;42.720;23.336;2023-02-19T12:16:18;-22922.28;;;16.54;40.08
5296;BME280;2670;42.720;23.336;2023-02-19T12:19:10;-22922.44;;;16.55;39.76
5296;BME280;2670;42.720;23.336;2023-02-19T12:21:58;-22918.03;;;16.39;39.63
5296;BME280;2670;42.720;23.336;2023-02-19T12:27:29;-22926.84;;;16.70;38.74
5296;BME280;2670;42.720;23.336;2023-02-19T12:30:16;-22924.78;;;16.63;38.99
5296;BME280;2670;42.720;23.336;2023-02-19T12:33:07;-22928.31;;;16.75;38.49
5296;BME280;2670;42.720;23.336;2023-02-19T12:35:45;-22932.59;;;16.90;38.72
5296;BME280;2670;42.720;23.336;2023-02-19T12:38:29;-22931.72;;;16.87;38.87
5296;BME280;2670;42.720;23.336;2023-02-19T12:41:25;-22931.41;;;16.86;38.91
5296;BME280;2670;42.720;23.336;2023-02-19T12:43:58;-22936.13;;;17.02;38.16
5296;BME280;2670;42.720;23.336;2023-02-19T12:46:31;-22937.44;;;17.07;38.31
5296;BME280;2670;42.720;23.336;2023-02-19T12:49:03;-22941.69;;;17.22;38.11
5296;BME280;2670;42.720;23.336;2023-02-19T12:51:38;-22941.56;;;17.21;38.01
5296;BME280;2670;42.720;23.336;2023-02-19T12:54:13;-22944.94;;;17.33;37.30
5296;BME280;2670;42.720;23.336;2023-02-19T12:56:46;-22950.38;;;17.52;36.31
5296;BME280;2670;42.720;23.336;2023-02-19T12:59:17;-22945.97;;;17.36;36.84
5296;BME280;2670;42.720;23.336;2023-02-19T13:01:51;-22945.97;;;17.36;36.95
5296;BME280;2670;42.720;23.336;2023-02-19T13:04:25;-22947.13;;;17.40;37.12
5296;BME280;2670;42.720;23.336;2023-02-19T13:06:57;-22949.63;;;17.49;36.74
5296;BME280;2670;42.720;23.336;2023-02-19T13:09:31;-22949.03;;;17.47;36.73
5296;BME280;2670;42.720;23.336;2023-02-19T13:12:03;-22952.28;;;17.58;36.42
5296;BME280;2670;42.720;23.336;2023-02-19T13:14:34;-22948.47;;;17.45;36.69
5296;BME280;2670;42.720;23.336;2023-02-19T13:17:05;-22952.44;;;17.59;36.89
5296;BME280;2670;42.720;23.336;2023-02-19T13:19:35;-22953.44;;;17.62;36.56
5296;BME280;2670;42.720;23.336;2023-02-19T13:22:11;-22955.06;;;17.68;36.48
5296;BME280;2670;42.720;23.336;2023-02-19T13:25:01;-22955.50;;;17.70;36.25
5296;BME280;2670;42.720;23.336;2023-02-19T13:27:52;-22961.53;;;17.90;35.72
5296;BME280;2670;42.720;23.336;2023-02-19T13:30:29;-22957.72;;;17.77;36.31
5296;BME280;2670;42.720;23.336;2023-02-19T13:33:02;-22954.91;;;17.67;36.63
5296;BME280;2670;42.720;23.336;2023-02-19T13:38:37;-22960.06;;;17.85;36.14